Time;durP1;ratioP1;P1;durP2;ratioP2;P2;SDS_P1;SDS_P2;PMS_P1;PMS_P2;Temp;Humidity;BMP_temperature;BMP_pressure;BME280_temperature;BME280_humidity;BME280_pressure;Samples;Min_cycle;Max_cycle;Signal;HPM_P1;HPM_P2
2022/03/28 00:00:05;;;;;;;10.45;6.55;;;14.80;65.70;;;;;;4195210;28;20074;-66
2022/03/28 00:02:27;;;;;;;8.55;7.35;;;14.80;65.80;;;;;;4206726;28;20051;-67
2022/03/28 00:04:49;;;;;;;9.55;7.35;;;14.80;65.90;;;;;;4208078;28;20058;-67
2022/03/28 00:07:11;;;;;;;8.68;7.80;;;14.70;65.60;;;;;;4208434;28;20476;-67
2022/03/28 00:09:33;;;;;;;11.23;7.47;;;14.80;65.30;;;;;;4208139;28;20404;-67
2022/03/28 00:11:57;;;;;;;11.50;9.35;;;14.80;65.30;;;;;;4208395;28;20079;-67
2022/03/28 00:14:19;;;;;;;14.15;11.13;;;14.70;65.60;;;;;;4206736;28;20074;-67
2022/03/28 00:16:41;;;;;;;14.93;11.23;;;14.70;65.70;;;;;;4191781;28;20059;-67
2022/03/28 00:19:04;;;;;;;13.38;10.38;;;14.70;65.70;;;;;;4200336;28;20067;-67
2022/03/28 00:21:26;;;;;;;16.17;12.05;;;14.70;65.60;;;;;;4207894;28;20048;-68
2022/03/28 00:23:48;;;;;;;14.88;11.48;;;14.70;65.90;;;;;;4208359;28;20105;-68
2022/03/28 00:26:10;;;;;;;16.45;12.18;;;14.70;66.00;;;;;;4208068;28;20056;-67
2022/03/28 00:28:34;;;;;;;14.73;9.48;;;14.70;65.40;;;;;;4208073;28;20126;-68
2022/03/28 00:30:56;;;;;;;12.40;9.50;;;14.70;65.30;;;;;;4191918;28;20103;-67
2022/03/28 00:33:18;;;;;;;13.20;10.35;;;14.70;65.20;;;;;;4207944;28;20105;-67
2022/03/28 00:35:40;;;;;;;13.25;10.32;;;14.60;65.70;;;;;;4207635;28;20448;-67
2022/03/28 00:38:03;;;;;;;11.73;9.95;;;14.60;65.90;;;;;;4207748;28;20052;-67
2022/03/28 00:40:28;;;;;;;11.10;9.88;;;14.70;66.00;;;;;;4207928;28;20044;-67
2022/03/28 00:42:50;;;;;;;10.40;8.88;;;14.70;65.60;;;;;;4208275;28;20120;-67
2022/03/28 00:45:13;;;;;;;11.35;9.80;;;14.60;65.80;;;;;;4208218;28;20058;-67
2022/03/28 00:47:35;;;;;;;10.88;8.88;;;14.70;66.20;;;;;;4207926;28;20040;-67
2022/03/28 00:49:58;;;;;;;12.07;8.98;;;14.70;66.00;;;;;;4191230;28;20135;-67
2022/03/28 00:52:20;;;;;;;10.48;8.77;;;14.60;65.70;;;;;;4193652;28;20114;-67
2022/03/28 00:54:42;;;;;;;10.88;9.18;;;14.60;65.90;;;;;;4194523;28;20056;-67
2022/03/28 00:57:05;;;;;;;16.67;11.35;;;14.60;65.80;;;;;;4194301;28;20044;-67
2022/03/28 00:59:27;;;;;;;22.17;16.70;;;14.60;65.50;;;;;;4210398;27;20143;-67
2022/03/28 01:01:50;;;;;;;26.02;17.75;;;14.60;65.40;;;;;;4193100;28;20049;-67
2022/03/28 01:04:13;;;;;;;22.60;16.67;;;14.60;65.80;;;;;;4199983;28;20449;-68
2022/03/28 01:06:36;;;;;;;22.02;17.10;;;14.60;66.10;;;;;;4211063;28;20472;-68
2022/03/28 01:08:58;;;;;;;18.42;15.48;;;14.60;66.20;;;;;;4211136;28;20044;-68
2022/03/28 01:11:22;;;;;;;20.60;17.77;;;14.60;66.30;;;;;;4211159;28;20209;-68
2022/03/28 01:13:44;;;;;;;21.73;16.58;;;14.60;66.10;;;;;;4210825;28;20047;-68
2022/03/28 01:16:06;;;;;;;20.05;16.58;;;14.60;66.20;;;;;;4210136;28;20463;-68
2022/03/28 01:18:29;;;;;;;23.95;16.98;;;14.60;66.40;;;;;;4210388;28;20044;-68
2022/03/28 01:20:55;;;;;;;24.73;16.42;;;14.60;66.60;;;;;;4210163;28;20385;-69
2022/03/28 01:23:18;;;;;;;22.25;17.33;;;14.60;66.50;;;;;;4210557;28;20536;-69
2022/03/28 01:25:43;;;;;;;16.60;14.52;;;14.60;65.40;;;;;;4210684;28;20055;-69
2022/03/28 01:28:06;;;;;;;16.40;13.48;;;14.60;64.60;;;;;;4210568;28;20117;-72
2022/03/28 01:30:29;;;;;;;15.05;11.77;;;14.60;64.10;;;;;;4210264;28;20044;-71
2022/03/28 01:32:54;;;;;;;12.10;10.23;;;14.60;65.20;;;;;;4210257;28;20043;-70
2022/03/28 01:35:26;;;;;;;8.13;7.32;;;14.60;65.60;;;;;;4208489;28;20423;-71
2022/03/28 01:37:50;;;;;;;8.52;7.45;;;14.60;65.00;;;;;;4209941;28;20086;-69
2022/03/28 01:40:12;;;;;;;9.55;7.05;;;14.50;64.30;;;;;;4209079;28;20123;-70
2022/03/28 01:42:34;;;;;;;9.43;7.95;;;14.50;64.40;;;;;;4208369;28;20135;-70
2022/03/28 01:44:57;;;;;;;10.40;7.70;;;14.50;65.20;;;;;;4210327;28;20052;-69
2022/03/28 01:47:19;;;;;;;8.35;7.55;;;14.50;65.80;;;;;;4208454;28;20114;-69
2022/03/28 01:49:42;;;;;;;14.98;9.48;;;14.50;65.80;;;;;;4209620;28;20152;-70
2022/03/28 01:52:05;;;;;;;11.63;9.98;;;14.50;65.80;;;;;;4193787;28;20096;-70
2022/03/28 01:54:28;;;;;;;11.23;9.00;;;14.50;65.10;;;;;;4206774;28;20070;-70
2022/03/28 01:56:50;;;;;;;15.52;9.82;;;14.50;64.40;;;;;;4210178;28;20493;-70
2022/03/28 01:59:12;;;;;;;11.07;9.27;;;14.50;64.20;;;;;;4197748;28;20070;-69
2022/03/28 02:01:35;;;;;;;10.73;8.90;;;14.40;64.60;;;;;;4210304;28;20385;-69
2022/03/28 02:03:58;;;;;;;12.00;9.18;;;14.40;65.00;;;;;;4209840;28;20097;-69
2022/03/28 02:06:20;;;;;;;12.07;9.88;;;14.50;65.40;;;;;;4212632;27;20466;-69
2022/03/28 02:08:42;;;;;;;13.55;9.93;;;14.40;65.30;;;;;;4215034;28;20110;-69
2022/03/28 02:11:05;;;;;;;12.73;8.63;;;14.40;65.30;;;;;;4208935;28;20048;-69
2022/03/28 02:13:27;;;;;;;9.50;8.55;;;14.40;66.10;;;;;;4209353;28;20105;-69
2022/03/28 02:15:49;;;;;;;9.93;8.75;;;14.40;66.10;;;;;;4209983;28;20043;-69
2022/03/28 02:18:11;;;;;;;9.40;7.80;;;14.40;66.80;;;;;;4210115;28;20105;-69
2022/03/28 02:20:33;;;;;;;9.15;7.43;;;14.40;67.20;;;;;;4207697;28;20147;-70
2022/03/28 02:22:55;;;;;;;10.27;7.72;;;14.40;67.50;;;;;;4207710;28;20594;-69
2022/03/28 02:25:18;;;;;;;8.80;6.47;;;14.40;67.60;;;;;;4207862;28;20194;-70
2022/03/28 02:27:42;;;;;;;11.38;7.03;;;14.40;67.80;;;;;;4209660;28;20064;-69
2022/03/28 02:30:06;;;;;;;9.98;6.43;;;14.40;67.70;;;;;;4209522;28;20044;-69
2022/03/28 02:32:28;;;;;;;8.00;6.43;;;14.40;67.50;;;;;;4208982;28;20097;-69
2022/03/28 02:34:51;;;;;;;9.23;6.82;;;14.40;67.80;;;;;;4208343;28;20482;-69
2022/03/28 02:37:13;;;;;;;9.40;6.10;;;14.40;67.60;;;;;;4206528;28;20127;-69
2022/03/28 02:39:35;;;;;;;5.80;4.80;;;14.40;67.40;;;;;;4205535;28;20052;-68
2022/03/28 02:41:57;;;;;;;6.10;4.57;;;14.40;67.50;;;;;;4204741;28;20063;-69
2022/03/28 02:44:21;;;;;;;8.00;5.00;;;14.40;67.70;;;;;;4202210;28;20131;-69
2022/03/28 02:46:43;;;;;;;6.22;4.47;;;14.40;67.90;;;;;;4202802;28;20132;-69
2022/03/28 02:49:06;;;;;;;4.60;4.07;;;14.40;67.90;;;;;;4200512;28;20128;-69
2022/03/28 02:51:28;;;;;;;4.63;3.53;;;14.40;68.60;;;;;;4204449;28;20137;-70
2022/03/28 02:53:50;;;;;;;4.13;3.72;;;14.40;67.30;;;;;;4204220;28;20564;-69
2022/03/28 02:56:12;;;;;;;3.15;2.95;;;14.40;67.40;;;;;;4203858;28;20230;-69
2022/03/28 02:58:34;;;;;;;2.42;2.25;;;14.40;66.40;;;;;;4203910;28;20117;-70
2022/03/28 03:00:57;;;;;;;3.70;3.40;;;14.40;67.00;;;;;;4202890;28;20496;-69
2022/03/28 03:03:20;;;;;;;3.00;2.80;;;14.40;66.90;;;;;;4205468;28;20060;-68
2022/03/28 03:05:43;;;;;;;2.90;2.70;;;14.40;67.50;;;;;;4201186;28;20065;-68
2022/03/28 03:08:06;;;;;;;3.30;3.00;;;14.40;67.50;;;;;;4192093;28;20060;-68
2022/03/28 03:10:28;;;;;;;4.00;3.17;;;14.40;67.60;;;;;;4192048;28;20056;-68
2022/03/28 03:12:50;;;;;;;3.38;3.08;;;14.40;67.60;;;;;;4191964;28;20125;-68
2022/03/28 03:15:12;;;;;;;4.82;3.65;;;14.40;67.90;;;;;;4189859;28;20055;-68
2022/03/28 03:17:36;;;;;;;4.82;3.67;;;14.40;67.80;;;;;;4205289;28;20492;-68
2022/03/28 03:19:58;;;;;;;4.72;4.05;;;14.40;67.50;;;;;;4205110;28;20404;-68
2022/03/28 03:22:20;;;;;;;3.78;3.35;;;14.40;67.30;;;;;;4191829;28;20055;-68
2022/03/28 03:24:43;;;;;;;3.13;2.83;;;14.40;67.00;;;;;;4191699;28;20137;-67
2022/03/28 03:27:05;;;;;;;4.40;4.00;;;14.40;67.50;;;;;;4193641;28;20049;-68
2022/03/28 03:29:27;;;;;;;3.72;2.72;;;14.40;67.70;;;;;;4208409;28;20062;-67
2022/03/28 03:31:49;;;;;;;4.43;3.08;;;14.30;67.90;;;;;;4208322;28;20412;-68
2022/03/28 03:34:12;;;;;;;3.10;2.90;;;14.30;67.90;;;;;;4207999;28;20055;-68
2022/03/28 03:36:35;;;;;;;3.42;3.13;;;14.40;68.10;;;;;;4208484;28;20484;-68
2022/03/28 03:38:57;;;;;;;3.90;3.50;;;14.30;67.70;;;;;;4208313;28;20061;-68
2022/03/28 03:41:19;;;;;;;4.70;3.47;;;14.30;67.70;;;;;;4208192;28;20131;-68
2022/03/28 03:43:44;;;;;;;5.07;3.95;;;14.30;67.80;;;;;;4206581;28;20117;-68
2022/03/28 03:46:06;;;;;;;3.40;3.10;;;14.30;67.70;;;;;;4206550;28;20400;-70
2022/03/28 03:48:29;;;;;;;5.65;3.38;;;14.30;67.90;;;;;;4208226;28;20060;-70
2022/03/28 03:50:53;;;;;;;2.65;2.42;;;14.30;68.10;;;;;;4208588;28;20529;-71
2022/03/28 03:53:15;;;;;;;2.70;2.15;;;14.30;67.90;;;;;;4208696;28;20465;-70
2022/03/28 03:55:38;;;;;;;2.97;2.47;;;14.30;67.90;;;;;;4206736;28;20048;-70
2022/03/28 03:58:00;;;;;;;2.42;2.20;;;14.40;67.00;;;;;;4207987;28;20055;-69
2022/03/28 04:00:23;;;;;;;3.15;2.53;;;14.30;67.10;;;;;;4208023;28;20135;-69
2022/03/28 04:02:45;;;;;;;2.78;2.42;;;14.30;67.50;;;;;;4208155;28;20054;-69
2022/03/28 04:05:08;;;;;;;3.38;2.80;;;14.30;67.80;;;;;;4208334;28;20055;-69
2022/03/28 04:07:32;;;;;;;4.00;2.80;;;14.30;67.30;;;;;;4208288;28;20452;-70
2022/03/28 04:09:54;;;;;;;3.42;3.13;;;14.30;67.40;;;;;;4207742;28;20109;-70
2022/03/28 04:12:16;;;;;;;4.15;3.42;;;14.30;67.60;;;;;;4208203;28;20134;-70
2022/03/28 04:14:38;;;;;;;4.95;4.20;;;14.30;67.80;;;;;;4207635;28;20386;-69
2022/03/28 04:17:01;;;;;;;5.10;4.20;;;14.30;68.00;;;;;;4208280;28;20139;-70
2022/03/28 04:19:23;;;;;;;5.43;4.22;;;14.30;68.10;;;;;;4208285;28;20055;-70
2022/03/28 04:21:46;;;;;;;3.72;3.25;;;14.30;68.20;;;;;;4208294;28;20411;-70
2022/03/28 04:24:10;;;;;;;3.10;2.80;;;14.30;68.40;;;;;;4208257;28;20414;-68
2022/03/28 04:26:32;;;;;;;2.63;2.42;;;14.30;68.20;;;;;;4211122;28;20106;-68
2022/03/28 04:28:54;;;;;;;2.95;2.72;;;14.30;67.90;;;;;;4195035;28;20469;-68
2022/03/28 04:31:16;;;;;;;7.35;5.28;;;14.30;67.90;;;;;;4195783;28;20052;-68
2022/03/28 04:33:39;;;;;;;5.75;4.57;;;14.30;67.20;;;;;;4194839;28;20044;-67
2022/03/28 04:36:01;;;;;;;11.52;7.72;;;14.30;67.10;;;;;;4196326;28;20140;-67
2022/03/28 04:38:25;;;;;;;12.77;7.80;;;14.30;67.50;;;;;;4211172;28;20376;-67
2022/03/28 04:40:48;;;;;;;12.70;7.78;;;14.30;67.70;;;;;;4211122;28;20142;-68
2022/03/28 04:43:10;;;;;;;10.65;7.13;;;14.30;68.00;;;;;;4211317;28;20135;-69
2022/03/28 04:45:32;;;;;;;12.90;8.10;;;14.30;68.20;;;;;;4211013;27;20127;-68
2022/03/28 04:47:55;;;;;;;18.33;9.43;;;14.30;68.90;;;;;;4210871;28;20048;-67
2022/03/28 04:50:17;;;;;;;23.02;13.25;;;14.30;68.10;;;;;;4209058;28;20043;-67
2022/03/28 04:52:40;;;;;;;19.88;12.35;;;14.30;67.60;;;;;;4211347;28;20054;-67
2022/03/28 04:55:03;;;;;;;24.70;16.35;;;14.20;67.70;;;;;;4195512;28;20488;-68
2022/03/28 04:57:26;;;;;;;30.10;17.80;;;14.20;66.50;;;;;;4210713;28;20044;-67
2022/03/28 04:59:49;;;;;;;33.38;19.65;;;14.30;67.30;;;;;;4209662;28;20139;-67
2022/03/28 05:02:11;;;;;;;29.40;18.92;;;14.30;67.60;;;;;;4211320;28;20113;-67
2022/03/28 05:04:34;;;;;;;30.10;19.02;;;14.30;66.40;;;;;;4210104;28;20464;-67
2022/03/28 05:06:55;;;;;;;14.77;10.82;;;14.30;67.00;;;;;;4210341;28;20102;-67
2022/03/28 05:09:17;;;;;;;17.00;12.60;;;14.20;66.90;;;;;;4210522;28;20044;-67
2022/03/28 05:11:39;;;;;;;16.98;12.52;;;14.20;66.70;;;;;;4210662;28;20525;-67
2022/03/28 05:14:03;;;;;;;16.85;12.70;;;14.20;67.10;;;;;;4210809;28;20053;-69
2022/03/28 05:16:25;;;;;;;13.68;10.05;;;14.20;66.60;;;;;;4210618;28;20496;-69
2022/03/28 05:18:47;;;;;;;13.80;10.68;;;14.20;66.30;;;;;;4209397;28;20078;-69
2022/03/28 05:21:09;;;;;;;12.30;9.85;;;14.20;66.30;;;;;;4204523;28;20046;-69
2022/03/28 05:23:32;;;;;;;12.48;9.40;;;14.20;66.40;;;;;;4193732;28;20124;-69
2022/03/28 05:25:54;;;;;;;14.32;10.73;;;14.20;66.90;;;;;;4192741;28;20044;-69
2022/03/28 05:28:16;;;;;;;15.57;11.32;;;14.10;68.40;;;;;;4201603;28;20059;-68
2022/03/28 05:30:39;;;;;;;19.50;12.40;;;14.10;67.60;;;;;;4210471;28;20151;-69
2022/03/28 05:33:03;;;;;;;18.52;12.70;;;14.10;66.60;;;;;;4210309;28;20381;-68
2022/03/28 05:35:25;;;;;;;18.27;12.05;;;14.10;67.60;;;;;;4210271;28;20134;-68
2022/03/28 05:37:47;;;;;;;16.60;13.10;;;14.10;67.80;;;;;;4209182;28;20048;-68
2022/03/28 05:40:11;;;;;;;16.17;12.35;;;14.10;67.70;;;;;;4209805;27;20500;-68
2022/03/28 05:42:33;;;;;;;16.23;12.07;;;14.10;68.10;;;;;;4208364;28;20069;-68
2022/03/28 05:44:55;;;;;;;11.20;9.45;;;14.10;67.70;;;;;;4209908;28;20093;-68
2022/03/28 05:47:19;;;;;;;6.75;6.05;;;14.00;67.90;;;;;;4209624;28;20048;-68
2022/03/28 05:49:41;;;;;;;6.63;6.03;;;14.10;67.80;;;;;;4209398;28;20094;-68
2022/03/28 05:52:04;;;;;;;6.32;5.28;;;14.00;67.60;;;;;;4209422;28;20055;-68
2022/03/28 05:54:26;;;;;;;5.85;4.93;;;14.10;68.20;;;;;;4210122;28;20492;-68
2022/03/28 05:56:48;;;;;;;4.15;3.85;;;14.00;68.20;;;;;;4210041;28;20511;-69
2022/03/28 05:59:12;;;;;;;4.03;3.60;;;14.10;68.00;;;;;;4193028;28;20078;-68
2022/03/28 06:01:34;;;;;;;3.40;3.22;;;14.10;69.00;;;;;;4193478;28;20048;-68
2022/03/28 06:03:58;;;;;;;3.17;2.80;;;14.10;68.00;;;;;;4191801;28;20105;-68
2022/03/28 06:06:20;;;;;;;3.08;2.88;;;14.10;68.20;;;;;;4201994;28;20067;-71
2022/03/28 06:08:43;;;;;;;3.17;2.53;;;14.10;67.90;;;;;;4208888;28;20118;-68
2022/03/28 06:11:06;;;;;;;3.13;2.88;;;14.10;67.80;;;;;;4199377;28;20036;-69
2022/03/28 06:13:29;;;;;;;3.20;2.67;;;14.10;67.60;;;;;;4209878;28;20410;-68
2022/03/28 06:15:51;;;;;;;3.65;2.67;;;14.20;68.40;;;;;;4209532;28;20055;-68
2022/03/28 06:18:13;;;;;;;4.40;4.07;;;14.20;68.60;;;;;;4209646;28;20101;-68
2022/03/28 06:20:37;;;;;;;3.10;2.78;;;14.10;67.50;;;;;;4210795;27;20191;-68
2022/03/28 06:23:00;;;;;;;3.22;3.10;;;14.10;68.30;;;;;;4217608;27;20048;-68
2022/03/28 06:25:22;;;;;;;3.55;3.25;;;14.10;67.90;;;;;;4214725;27;20048;-68
2022/03/28 06:27:53;;;;;;;6.50;3.60;;;14.10;67.50;;;;;;4209457;28;20043;-69
2022/03/28 06:30:16;;;;;;;4.55;4.15;;;14.10;67.20;;;;;;4208506;28;20040;-68
2022/03/28 06:32:38;;;;;;;3.92;3.72;;;14.10;68.00;;;;;;4209276;28;20048;-69
2022/03/28 06:35:00;;;;;;;3.60;3.38;;;14.00;68.30;;;;;;4192515;28;20090;-69
2022/03/28 06:37:26;;;;;;;4.90;4.38;;;14.00;67.80;;;;;;4206553;28;20484;-69
2022/03/28 06:39:48;;;;;;;4.05;3.60;;;14.00;67.90;;;;;;4221767;27;20040;-69
2022/03/28 06:42:10;;;;;;;6.50;6.00;;;14.00;68.50;;;;;;4209656;28;20482;-70
2022/03/28 06:44:32;;;;;;;9.27;6.40;;;14.00;67.60;;;;;;4209336;28;20569;-69
2022/03/28 06:46:55;;;;;;;4.57;4.10;;;14.00;67.00;;;;;;4209196;28;20131;-69
2022/03/28 06:49:17;;;;;;;5.30;4.90;;;14.00;67.30;;;;;;4207451;28;20106;-69
2022/03/28 06:51:39;;;;;;;6.05;5.03;;;13.90;68.10;;;;;;4207006;28;20488;-69
2022/03/28 06:54:04;;;;;;;5.65;5.22;;;14.00;68.80;;;;;;4209837;28;20051;-70
2022/03/28 06:56:26;;;;;;;6.68;5.68;;;13.90;69.10;;;;;;4193466;28;20123;-69
2022/03/28 06:58:49;;;;;;;10.20;7.45;;;13.90;67.90;;;;;;4208958;28;20412;-69
2022/03/28 07:01:11;;;;;;;14.23;8.48;;;13.90;67.30;;;;;;4195799;28;20127;-70
2022/03/28 07:03:34;;;;;;;17.95;11.40;;;13.90;67.00;;;;;;4190080;28;20392;-70
2022/03/28 07:05:57;;;;;;;17.85;11.40;;;13.90;67.20;;;;;;4190096;28;20048;-70
2022/03/28 07:08:19;;;;;;;19.20;13.05;;;13.90;66.90;;;;;;4203522;28;20137;-71
2022/03/28 07:10:43;;;;;;;22.70;14.50;;;13.90;66.80;;;;;;4197803;28;20051;-70
2022/03/28 07:13:06;;;;;;;19.67;11.98;;;13.90;68.00;;;;;;4206706;28;20070;-69
2022/03/28 07:15:28;;;;;;;20.15;12.27;;;13.90;68.10;;;;;;4198425;28;20158;-70
2022/03/28 07:17:54;;;;;;;21.02;11.52;;;13.90;68.70;;;;;;4187015;28;20450;-70
2022/03/28 07:20:17;;;;;;;15.77;10.52;;;13.90;69.60;;;;;;4190252;28;20458;-70
2022/03/28 07:22:39;;;;;;;14.80;9.60;;;13.90;69.00;;;;;;4195125;28;20058;-67
2022/03/28 07:25:01;;;;;;;15.65;9.80;;;14.00;69.20;;;;;;4206107;28;20123;-67
2022/03/28 07:27:25;;;;;;;15.95;9.57;;;13.90;69.50;;;;;;4190325;28;20048;-66
2022/03/28 07:29:47;;;;;;;12.30;8.48;;;13.90;68.70;;;;;;4191598;28;20480;-67
2022/03/28 07:32:09;;;;;;;11.85;6.85;;;13.90;68.70;;;;;;4217435;27;20587;-67
2022/03/28 07:34:32;;;;;;;10.45;7.53;;;13.90;69.40;;;;;;4206275;28;20483;-67
2022/03/28 07:36:54;;;;;;;9.05;6.80;;;13.90;69.80;;;;;;4205619;28;20044;-67
2022/03/28 07:39:16;;;;;;;11.52;7.28;;;13.90;70.30;;;;;;4197358;28;20082;-67
2022/03/28 07:41:38;;;;;;;10.25;7.22;;;13.90;70.60;;;;;;4200164;28;20056;-67
2022/03/28 07:44:02;;;;;;;13.43;8.82;;;13.90;70.70;;;;;;4193143;28;20051;-67
2022/03/28 07:46:24;;;;;;;12.48;7.78;;;13.90;70.50;;;;;;4205910;28;20138;-67
2022/03/28 07:48:47;;;;;;;9.45;7.32;;;13.90;70.40;;;;;;4203678;28;20093;-67
2022/03/28 07:51:09;;;;;;;9.18;7.47;;;13.90;70.30;;;;;;4189450;28;20044;-67
2022/03/28 07:53:32;;;;;;;7.13;6.20;;;13.90;70.50;;;;;;4193665;28;20162;-68
2022/03/28 07:55:55;;;;;;;11.40;7.00;;;13.90;70.60;;;;;;4189365;28;20059;-67
2022/03/28 07:58:17;;;;;;;14.65;8.48;;;13.90;70.70;;;;;;4222688;28;20134;-68
2022/03/28 08:00:40;;;;;;;11.30;7.22;;;14.00;70.60;;;;;;4194599;28;20044;-68
2022/03/28 08:03:03;;;;;;;11.32;8.27;;;14.00;70.60;;;;;;4189585;28;20084;-68
2022/03/28 08:05:26;;;;;;;10.40;7.38;;;13.90;70.60;;;;;;4194846;28;20590;-68
2022/03/28 08:07:50;;;;;;;10.75;7.60;;;14.00;70.70;;;;;;4196630;28;20124;-67
2022/03/28 08:10:13;;;;;;;9.57;7.30;;;14.00;70.70;;;;;;4193076;28;20054;-68
2022/03/28 08:12:36;;;;;;;9.35;7.10;;;14.00;70.60;;;;;;4199562;28;20139;-66
2022/03/28 08:14:59;;;;;;;9.30;6.85;;;14.00;70.60;;;;;;4199157;28;20048;-68
2022/03/28 08:17:23;;;;;;;8.35;6.90;;;14.00;70.40;;;;;;4190560;28;20054;-68
2022/03/28 08:19:46;;;;;;;7.07;6.22;;;14.00;70.20;;;;;;4200837;28;20051;-69
2022/03/28 08:22:08;;;;;;;7.57;6.82;;;14.00;70.30;;;;;;4200764;28;20163;-68
2022/03/28 08:24:30;;;;;;;9.00;6.55;;;14.00;70.40;;;;;;4191378;28;20044;-68
2022/03/28 08:26:53;;;;;;;6.30;5.63;;;14.00;70.50;;;;;;4204534;28;20138;-67
2022/03/28 08:29:15;;;;;;;9.48;6.38;;;14.00;70.60;;;;;;4191525;28;20553;-67
2022/03/28 08:31:37;;;;;;;8.23;6.80;;;14.00;70.70;;;;;;4189572;28;20056;-67
2022/03/28 08:34:01;;;;;;;9.00;7.57;;;14.00;70.90;;;;;;4188955;28;20056;-68
2022/03/28 08:36:23;;;;;;;9.60;7.72;;;14.00;70.90;;;;;;4188294;28;20071;-68
2022/03/28 08:38:45;;;;;;;9.95;7.65;;;14.00;70.90;;;;;;4189512;28;20049;-68
2022/03/28 08:41:12;;;;;;;9.65;7.72;;;14.00;71.00;;;;;;4197438;28;20486;-68
2022/03/28 08:43:34;;;;;;;9.07;6.72;;;14.00;70.60;;;;;;4208333;28;20079;-67
2022/03/28 08:45:58;;;;;;;10.45;8.57;;;14.10;70.90;;;;;;4207815;28;20055;-68
2022/03/28 08:48:21;;;;;;;11.57;8.80;;;14.10;70.40;;;;;;4208137;28;20052;-68
2022/03/28 08:50:49;;;;;;;10.32;8.18;;;14.00;69.50;;;;;;4208048;28;20435;-68
2022/03/28 08:53:13;;;;;;;9.80;7.43;;;14.10;69.60;;;;;;4207332;28;20074;-67
2022/03/28 08:55:35;;;;;;;10.63;8.48;;;14.00;70.10;;;;;;4208044;28;20048;-67
2022/03/28 08:57:58;;;;;;;11.43;8.55;;;14.10;70.40;;;;;;4206338;28;20043;-68
2022/03/28 09:00:20;;;;;;;13.63;8.05;;;14.00;70.70;;;;;;4207852;28;20055;-68
2022/03/28 09:02:45;;;;;;;9.32;8.07;;;14.00;70.90;;;;;;4208155;28;20051;-68
2022/03/28 09:05:07;;;;;;;10.73;8.02;;;14.00;71.80;;;;;;4207813;28;20040;-68
2022/03/28 09:07:31;;;;;;;10.82;7.47;;;14.10;70.90;;;;;;4207554;28;20067;-68
2022/03/28 09:09:58;;;;;;;10.80;8.45;;;14.10;70.90;;;;;;4207021;28;20117;-68
2022/03/28 09:12:21;;;;;;;11.63;8.70;;;14.10;71.00;;;;;;4208674;28;20052;-68
2022/03/28 09:14:45;;;;;;;11.18;8.50;;;14.10;70.80;;;;;;4210975;28;20048;-68
2022/03/28 09:17:10;;;;;;;11.63;8.82;;;14.00;69.90;;;;;;4208442;28;20568;-67
2022/03/28 09:19:50;;;;;;;10.95;9.15;;;14.10;69.90;;;;;;4210858;28;20517;-68
2022/03/28 09:22:13;;;;;;;12.52;8.38;;;14.10;69.90;;;;;;4210241;28;20104;-69
2022/03/28 09:24:37;;;;;;;9.30;7.85;;;14.10;70.10;;;;;;4209372;28;20505;-67
2022/03/28 09:27:12;;;;;;;10.77;8.82;;;14.10;70.20;;;;;;4210103;28;20036;-67
2022/03/28 09:29:34;;;;;;;10.77;8.52;;;14.10;70.10;;;;;;4209904;28;20129;-68
2022/03/28 09:31:56;;;;;;;11.02;8.90;;;14.10;69.70;;;;;;4210834;28;20044;-69
2022/03/28 09:34:20;;;;;;;14.38;9.80;;;14.10;69.30;;;;;;4210035;28;20052;-68
2022/03/28 09:36:50;;;;;;;12.48;9.65;;;14.10;69.40;;;;;;4210055;28;20052;-68
2022/03/28 09:39:16;;;;;;;12.88;10.48;;;14.10;68.40;;;;;;4204500;28;20040;-67
2022/03/28 09:41:40;;;;;;;13.70;10.23;;;14.00;67.60;;;;;;4211038;28;20060;-68
2022/03/28 09:44:02;;;;;;;12.00;9.13;;;14.00;68.40;;;;;;4209463;28;20879;-67
2022/03/28 09:46:26;;;;;;;13.77;10.07;;;14.00;68.70;;;;;;4208920;28;20052;-67
2022/03/28 09:48:48;;;;;;;12.38;10.25;;;14.10;69.00;;;;;;4207555;28;20147;-68
2022/03/28 09:51:10;;;;;;;14.10;9.95;;;14.00;69.40;;;;;;4209986;28;20158;-68
2022/03/28 09:53:36;;;;;;;15.25;9.70;;;14.00;69.30;;;;;;4210400;28;20048;-67
2022/03/28 09:56:01;;;;;;;12.60;9.18;;;14.00;69.60;;;;;;4210537;28;20055;-67
2022/03/28 09:58:43;;;;;;;12.57;9.60;;;14.00;69.90;;;;;;4209334;28;20067;-67
2022/03/28 10:01:08;;;;;;;11.30;9.18;;;14.00;70.30;;;;;;4203956;28;20360;-68
2022/03/28 10:03:33;;;;;;;17.65;9.23;;;14.00;71.40;;;;;;4209934;28;20150;-67
2022/03/28 10:05:56;;;;;;;14.48;9.57;;;14.00;70.60;;;;;;4210128;28;20411;-68
2022/03/28 10:08:19;;;;;;;12.07;10.18;;;14.00;70.60;;;;;;4209175;28;20526;-66
2022/03/28 10:10:46;;;;;;;11.35;8.98;;;14.00;70.70;;;;;;4209543;28;20436;-67
2022/03/28 10:13:08;;;;;;;15.75;9.82;;;14.10;70.60;;;;;;4210142;28;20105;-67
2022/03/28 10:15:32;;;;;;;11.98;10.32;;;14.00;70.60;;;;;;4209878;28;20055;-68
2022/03/28 10:17:54;;;;;;;12.95;9.90;;;14.10;70.60;;;;;;4206939;28;20408;-70
2022/03/28 10:20:16;;;;;;;12.70;11.20;;;14.10;70.60;;;;;;4193063;28;20488;-66
2022/03/28 10:22:58;;;;;;;13.25;10.50;;;14.10;71.50;;;;;;4192965;28;20044;-66
2022/03/28 10:25:23;;;;;;;12.73;9.95;;;14.10;71.00;;;;;;4193057;28;20048;-67
2022/03/28 10:27:47;;;;;;;11.52;9.63;;;14.10;71.40;;;;;;4193141;28;20060;-67
2022/03/28 10:30:17;;;;;;;12.32;9.75;;;14.20;71.80;;;;;;4208904;28;20212;-66
2022/03/28 10:32:41;;;;;;;14.50;10.30;;;14.20;72.20;;;;;;4209164;28;20067;-67
2022/03/28 10:35:07;;;;;;;15.52;10.77;;;14.10;72.40;;;;;;4209466;28;20048;-67
2022/03/28 10:37:33;;;;;;;14.95;10.57;;;14.20;72.40;;;;;;4209765;28;20055;-67
2022/03/28 10:40:17;;;;;;;14.65;10.32;;;14.20;72.40;;;;;;4209257;28;20117;-67
2022/03/28 10:42:40;;;;;;;13.27;9.23;;;14.20;72.10;;;;;;4208446;28;20047;-67
2022/03/28 10:45:07;;;;;;;15.48;11.63;;;14.20;72.20;;;;;;4192727;28;20044;-66
2022/03/28 10:47:45;;;;;;;16.58;11.13;;;14.20;72.20;;;;;;4191012;28;20040;-67
2022/03/28 10:50:09;;;;;;;17.75;11.40;;;14.20;71.40;;;;;;4192877;28;20443;-67
2022/03/28 10:52:32;;;;;;;15.07;11.18;;;14.20;70.30;;;;;;4192361;28;20048;-67
2022/03/28 10:54:54;;;;;;;13.30;10.70;;;14.20;68.90;;;;;;4193114;28;20082;-67
2022/03/28 10:57:27;;;;;;;13.35;10.50;;;14.20;69.80;;;;;;4209376;28;20052;-67
2022/03/28 11:00:02;;;;;;;15.95;10.57;;;14.20;70.60;;;;;;4209387;28;20472;-67
2022/03/28 11:02:31;;;;;;;13.48;10.73;;;14.20;71.00;;;;;;4209402;28;20446;-67
2022/03/28 11:04:54;;;;;;;13.82;10.77;;;14.20;71.30;;;;;;4209143;28;20058;-67
2022/03/28 11:07:22;;;;;;;14.68;11.27;;;14.20;71.30;;;;;;4208957;28;20075;-67
2022/03/28 11:09:47;;;;;;;15.48;11.32;;;14.20;71.20;;;;;;4209501;28;20155;-67
2022/03/28 11:12:12;;;;;;;13.05;11.25;;;14.20;71.20;;;;;;4206646;28;20055;-67
2022/03/28 11:14:56;;;;;;;15.50;11.88;;;14.20;70.70;;;;;;4209348;28;20123;-72
2022/03/28 11:17:20;;;;;;;17.65;12.23;;;14.30;70.20;;;;;;4209009;28;20040;-67
2022/03/28 11:19:54;;;;;;;14.57;11.63;;;14.30;71.30;;;;;;4207971;28;20451;-67
2022/03/28 11:22:17;;;;;;;16.83;11.63;;;14.30;71.80;;;;;;4208670;28;20071;-66
2022/03/28 11:24:47;;;;;;;15.43;11.60;;;14.40;71.70;;;;;;4199400;28;20434;-66
2022/03/28 11:27:10;;;;;;;15.27;11.55;;;14.40;71.50;;;;;;4207718;28;20055;-66
2022/03/28 11:29:32;;;;;;;14.40;11.50;;;14.40;71.90;;;;;;4208817;28;20127;-66
2022/03/28 11:31:54;;;;;;;12.75;10.98;;;14.40;71.50;;;;;;4208582;28;20147;-67
2022/03/28 11:34:17;;;;;;;27.33;18.23;;;14.40;71.50;;;;;;4208806;28;20102;-66
2022/03/28 11:36:41;;;;;;;30.17;21.65;;;14.40;71.60;;;;;;4208750;28;20036;-66
2022/03/28 11:39:04;;;;;;;16.95;12.50;;;14.40;71.20;;;;;;4208801;28;20048;-66
2022/03/28 11:41:27;;;;;;;17.75;12.25;;;14.40;71.40;;;;;;4208610;28;20502;-66
2022/03/28 11:43:51;;;;;;;13.70;10.80;;;14.50;70.70;;;;;;4208543;28;20457;-66
2022/03/28 11:46:16;;;;;;;15.05;10.60;;;14.50;70.70;;;;;;4209114;28;20050;-66
2022/03/28 11:48:50;;;;;;;20.63;14.32;;;14.50;70.80;;;;;;4208650;28;20467;-66
2022/03/28 11:51:16;;;;;;;18.63;12.38;;;14.50;71.10;;;;;;4206352;28;20070;-66
2022/03/28 11:53:40;;;;;;;16.67;11.77;;;14.50;71.20;;;;;;4208530;28;20048;-66
2022/03/28 11:56:02;;;;;;;16.58;12.38;;;14.50;71.20;;;;;;4208475;28;20044;-67
2022/03/28 11:58:32;;;;;;;16.50;11.73;;;14.60;71.00;;;;;;4208677;28;20048;-66
2022/03/28 12:01:02;;;;;;;15.68;11.90;;;14.60;69.70;;;;;;4207725;28;20101;-66
2022/03/28 12:03:24;;;;;;;17.98;12.27;;;14.60;68.40;;;;;;4208456;28;20052;-66
2022/03/28 12:05:48;;;;;;;15.85;12.10;;;14.60;68.10;;;;;;4208071;28;20464;-66
2022/03/28 12:08:13;;;;;;;17.70;12.18;;;14.60;68.60;;;;;;4208635;28;21512;-67
2022/03/28 12:10:38;;;;;;;14.63;12.15;;;14.70;68.30;;;;;;4208502;28;20051;-66
2022/03/28 12:13:03;;;;;;;17.00;12.10;;;14.70;68.40;;;;;;4207807;28;20348;-66
2022/03/28 12:15:30;;;;;;;23.90;15.10;;;14.70;69.10;;;;;;4208612;28;20051;-66
2022/03/28 12:17:53;;;;;;;19.05;13.68;;;14.70;69.10;;;;;;4208195;28;20044;-67